createdAt,value
2019-04-13T00:00:55.113Z,0.00
2019-04-13T00:01:55.121Z,0.00
2019-04-13T00:02:55.129Z,0.00
2019-04-13T00:03:55.134Z,0.00
2019-04-13T00:04:55.143Z,0.00
2019-04-13T00:05:55.147Z,0.00
2019-04-13T00:06:55.167Z,0.00
2019-04-13T00:07:55.168Z,0.00
2019-04-13T00:08:55.174Z,0.00
2019-04-13T00:09:55.184Z,0.00
2019-04-13T00:10:55.188Z,0.00
2019-04-13T00:11:55.197Z,0.00
2019-04-13T00:12:55.212Z,0.00
2019-04-13T00:13:55.210Z,0.00
2019-04-13T00:14:55.223Z,0.00
2019-04-13T00:15:55.226Z,0.00
2019-04-13T00:16:55.238Z,0.00
2019-04-13T00:17:55.242Z,0.00
2019-04-13T00:18:55.252Z,0.00
2019-04-13T00:19:55.258Z,0.00
2019-04-13T00:20:55.272Z,0.00
2019-04-13T00:21:55.278Z,0.00
2019-04-13T00:22:55.285Z,0.00
2019-04-13T00:23:55.293Z,0.00
2019-04-13T00:24:55.298Z,0.00
2019-04-13T00:25:55.306Z,0.00
2019-04-13T00:26:55.321Z,0.00
2019-04-13T00:27:55.326Z,0.00
2019-04-13T00:28:55.334Z,0.00
2019-04-13T00:29:55.341Z,0.00
2019-04-13T00:30:55.347Z,0.00
2019-04-13T00:31:55.353Z,0.00
2019-04-13T00:32:55.362Z,0.00
2019-04-13T00:33:55.371Z,0.00
2019-04-13T00:34:55.376Z,0.00
2019-04-13T00:35:55.395Z,0.00
2019-04-13T00:36:55.396Z,0.00
2019-04-13T00:37:55.402Z,0.00
2019-04-13T00:38:55.416Z,0.00
2019-04-13T00:39:55.415Z,0.00
2019-04-13T00:40:55.424Z,0.00
2019-04-13T00:41:55.429Z,0.00
2019-04-13T00:42:55.447Z,0.00
2019-04-13T00:43:55.452Z,0.00
2019-04-13T00:44:55.460Z,0.00
2019-04-13T00:45:55.466Z,0.00
2019-04-13T00:46:55.472Z,0.00
2019-04-13T00:47:55.482Z,0.00
2019-04-13T00:48:55.490Z,0.00
2019-04-13T00:49:55.492Z,0.00
2019-04-13T00:50:55.501Z,0.00
2019-04-13T00:51:55.521Z,0.00
2019-04-13T00:52:55.520Z,0.00
2019-04-13T00:53:55.524Z,0.00
2019-04-13T00:54:55.533Z,0.00
2019-04-13T00:55:55.544Z,0.00
2019-04-13T00:56:55.558Z,0.00
2019-04-13T00:57:55.559Z,0.00
2019-04-13T00:58:55.567Z,0.00
2019-04-13T00:59:55.576Z,0.00
2019-04-13T01:00:55.583Z,0.00
2019-04-13T01:01:55.592Z,0.00
2019-04-13T01:02:55.596Z,0.00
2019-04-13T01:03:55.601Z,0.00
2019-04-13T01:04:55.610Z,0.00
2019-04-13T01:05:55.616Z,0.00
2019-04-13T01:06:55.628Z,0.00
2019-04-13T01:07:55.634Z,0.00
2019-04-13T01:08:55.641Z,0.00
2019-04-13T01:09:55.649Z,0.00
2019-04-13T01:10:55.662Z,0.00
2019-04-13T01:11:55.666Z,0.00
2019-04-13T01:12:55.680Z,0.00
2019-04-13T01:13:55.684Z,0.00
2019-04-13T01:14:55.691Z,0.00
2019-04-13T01:15:55.698Z,0.00
2019-04-13T01:16:55.703Z,0.00
2019-04-13T01:17:55.710Z,0.00
2019-04-13T01:18:57.030Z,0.00
2019-04-13T01:19:55.730Z,0.00
2019-04-13T01:20:55.734Z,0.00
2019-04-13T01:21:55.744Z,0.00
2019-04-13T01:22:55.747Z,0.00
2019-04-13T01:23:55.755Z,0.00
2019-04-13T01:24:55.765Z,0.00
2019-04-13T01:25:55.770Z,0.00
2019-04-13T01:26:55.780Z,0.00
2019-04-13T01:27:55.791Z,0.00
2019-04-13T01:28:55.801Z,0.00
2019-04-13T01:29:55.807Z,0.00
2019-04-13T01:30:55.808Z,0.00
2019-04-13T01:31:55.816Z,0.00
2019-04-13T01:32:55.828Z,0.00
2019-04-13T01:33:55.836Z,0.00
2019-04-13T01:35:05.451Z,0.00
2019-04-13T01:35:55.851Z,0.00
2019-04-13T01:36:55.859Z,0.00
2019-04-13T01:37:55.869Z,0.00
2019-04-13T01:38:55.871Z,0.00
2019-04-13T01:39:55.880Z,0.00
2019-04-13T01:40:55.887Z,0.00
2019-04-13T01:41:55.891Z,0.00
2019-04-13T01:42:55.903Z,0.00
2019-04-13T01:43:55.913Z,0.00
2019-04-13T01:44:55.921Z,0.00
2019-04-13T01:45:55.922Z,0.00
2019-04-13T01:46:55.928Z,0.00
2019-04-13T01:47:57.323Z,0.00
2019-04-13T01:48:55.943Z,0.00
2019-04-13T01:49:55.955Z,0.00
2019-04-13T01:50:55.962Z,0.00
2019-04-13T01:51:55.965Z,0.00
2019-04-13T01:52:55.973Z,0.00
2019-04-13T01:53:55.980Z,0.00
2019-04-13T01:54:55.989Z,0.00
2019-04-13T01:55:55.996Z,0.00
2019-04-13T01:56:56.005Z,0.00
2019-04-13T01:57:56.011Z,0.00
2019-04-13T01:58:56.017Z,0.00
2019-04-13T01:59:56.025Z,0.00
2019-04-13T02:00:56.036Z,0.00
2019-04-13T02:01:56.039Z,0.00
2019-04-13T02:02:56.053Z,0.00
2019-04-13T02:03:56.058Z,0.00
2019-04-13T02:04:56.066Z,0.00
2019-04-13T02:05:56.074Z,0.00
2019-04-13T02:06:56.079Z,0.00
2019-04-13T02:07:56.085Z,0.00
2019-04-13T02:08:56.096Z,0.00
2019-04-13T02:09:56.103Z,0.00
2019-04-13T02:10:56.110Z,0.00
2019-04-13T02:11:56.116Z,0.00
2019-04-13T02:12:56.127Z,0.00
2019-04-13T02:13:56.132Z,0.00
2019-04-13T02:14:56.135Z,0.00
2019-04-13T02:15:56.150Z,0.00
2019-04-13T02:16:56.151Z,0.00
2019-04-13T02:17:56.159Z,0.00
2019-04-13T02:18:56.174Z,0.00
2019-04-13T02:19:56.172Z,0.00
2019-04-13T02:20:56.183Z,0.00
2019-04-13T02:21:56.186Z,0.00
2019-04-13T02:22:56.194Z,0.00
2019-04-13T02:23:56.205Z,0.00
2019-04-13T02:24:56.208Z,0.00
2019-04-13T02:25:56.219Z,0.00
2019-04-13T02:26:56.224Z,0.00
2019-04-13T02:27:56.232Z,0.00
2019-04-13T02:28:56.242Z,0.00
2019-04-13T02:29:56.248Z,0.00
2019-04-13T02:30:56.258Z,0.00
2019-04-13T02:31:56.260Z,0.00
2019-04-13T02:32:56.268Z,0.00
2019-04-13T02:33:56.272Z,0.00
2019-04-13T02:34:56.282Z,0.00
2019-04-13T02:35:56.294Z,0.00
2019-04-13T02:36:56.296Z,0.00
2019-04-13T02:37:56.310Z,0.00
2019-04-13T02:38:56.319Z,0.00
2019-04-13T02:39:56.321Z,0.00
2019-04-13T02:40:56.335Z,0.00
2019-04-13T02:41:56.336Z,0.00
2019-04-13T02:42:56.337Z,0.00
2019-04-13T02:43:56.357Z,0.00
2019-04-13T02:44:56.356Z,0.00
2019-04-13T02:45:56.356Z,0.00
2019-04-13T02:46:56.370Z,0.00
2019-04-13T02:47:56.382Z,0.00
2019-04-13T02:48:56.385Z,0.00
2019-04-13T02:49:56.388Z,0.00
2019-04-13T02:50:56.401Z,0.00
2019-04-13T02:51:56.421Z,0.00
2019-04-13T02:52:56.407Z,0.00
2019-04-13T02:53:56.417Z,0.00
2019-04-13T02:54:56.422Z,0.00
2019-04-13T02:55:56.430Z,0.00
2019-04-13T02:56:56.434Z,0.00
2019-04-13T02:57:56.445Z,0.00
2019-04-13T02:58:56.452Z,0.00
2019-04-13T02:59:56.512Z,0.00
2019-04-13T03:00:56.461Z,0.00
2019-04-13T03:01:56.469Z,0.00
2019-04-13T03:02:56.476Z,0.00
2019-04-13T03:03:56.484Z,0.00
2019-04-13T03:04:56.493Z,0.00
2019-04-13T03:05:56.496Z,0.00
2019-04-13T03:06:56.503Z,0.00
2019-04-13T03:07:56.513Z,0.00
2019-04-13T03:08:56.522Z,0.00
2019-04-13T03:09:56.525Z,0.00
2019-04-13T03:10:56.530Z,0.00
2019-04-13T03:11:56.544Z,0.00
2019-04-13T03:12:56.547Z,0.00
2019-04-13T03:13:56.553Z,0.00
2019-04-13T03:14:56.557Z,0.00
2019-04-13T03:15:56.564Z,0.00
2019-04-13T03:16:56.572Z,0.00
2019-04-13T03:17:56.579Z,0.00
2019-04-13T03:18:56.582Z,0.00
2019-04-13T03:19:56.590Z,0.00
2019-04-13T03:20:56.600Z,0.00
2019-04-13T03:21:56.607Z,0.00
2019-04-13T03:22:56.612Z,0.00
2019-04-13T03:23:56.616Z,0.00
2019-04-13T03:24:56.624Z,0.00
2019-04-13T03:25:56.629Z,0.00
2019-04-13T03:26:56.659Z,0.00
2019-04-13T03:27:56.644Z,0.00
2019-04-13T03:28:56.655Z,0.00
2019-04-13T03:29:56.659Z,0.00
2019-04-13T03:30:56.672Z,0.00
2019-04-13T03:31:56.675Z,0.00
2019-04-13T03:32:56.679Z,0.00
2019-04-13T03:33:56.685Z,0.00
2019-04-13T03:34:56.693Z,0.00
2019-04-13T03:35:59.435Z,0.00
2019-04-13T03:36:56.702Z,0.00
2019-04-13T03:37:56.712Z,0.00
2019-04-13T03:38:56.714Z,0.00
2019-04-13T03:39:56.721Z,0.00
2019-04-13T03:40:56.731Z,0.00
2019-04-13T03:41:56.735Z,0.00
2019-04-13T03:42:56.743Z,0.00
2019-04-13T03:43:56.752Z,0.00
2019-04-13T03:44:56.758Z,0.00
2019-04-13T03:45:56.763Z,0.00
2019-04-13T03:46:56.769Z,0.00
2019-04-13T03:47:56.771Z,0.00
2019-04-13T03:48:56.781Z,0.00
2019-04-13T03:49:56.788Z,0.00
2019-04-13T03:50:56.794Z,0.00
2019-04-13T03:51:56.800Z,0.00
2019-04-13T03:52:56.807Z,0.00
2019-04-13T03:53:56.813Z,0.00
2019-04-13T03:54:56.819Z,0.00
2019-04-13T03:55:56.827Z,0.00
2019-04-13T03:56:56.835Z,0.00
2019-04-13T03:57:56.869Z,0.00
2019-04-13T03:58:56.845Z,0.00
2019-04-13T03:59:56.853Z,0.00
2019-04-13T04:00:56.859Z,0.00
2019-04-13T04:01:56.863Z,0.00
2019-04-13T04:02:56.870Z,0.00
2019-04-13T04:03:56.878Z,0.00
2019-04-13T04:04:56.887Z,0.00
2019-04-13T04:05:56.890Z,0.00
2019-04-13T04:06:56.899Z,0.00
2019-04-13T04:07:56.905Z,0.00
2019-04-13T04:08:56.907Z,0.00
2019-04-13T04:09:56.913Z,0.00
2019-04-13T04:10:56.923Z,0.00
2019-04-13T04:11:56.926Z,0.00
2019-04-13T04:12:56.938Z,0.00
2019-04-13T04:13:56.942Z,0.00
2019-04-13T04:14:56.949Z,0.00
2019-04-13T04:15:56.951Z,0.00
2019-04-13T04:16:56.963Z,0.00
2019-04-13T04:17:56.968Z,0.00
2019-04-13T04:18:56.982Z,0.00
2019-04-13T04:19:56.980Z,0.00
2019-04-13T04:20:56.985Z,0.00
2019-04-13T04:21:56.989Z,0.00
2019-04-13T04:22:56.997Z,0.00
2019-04-13T04:23:57.003Z,0.00
2019-04-13T04:24:57.014Z,0.00
2019-04-13T04:25:57.018Z,0.00
2019-04-13T04:26:57.022Z,0.00
2019-04-13T04:27:57.029Z,0.00
2019-04-13T04:28:57.035Z,0.00
2019-04-13T04:29:57.052Z,0.00
2019-04-13T04:30:57.047Z,0.00
2019-04-13T04:31:57.056Z,0.00
2019-04-13T04:32:57.061Z,0.00
2019-04-13T04:33:57.072Z,0.00
2019-04-13T04:34:57.078Z,0.00
2019-04-13T04:35:57.086Z,0.00
2019-04-13T04:36:57.090Z,0.00
2019-04-13T04:37:57.093Z,0.00
2019-04-13T04:38:57.102Z,0.00
2019-04-13T04:39:57.106Z,0.00
2019-04-13T04:40:57.113Z,0.00
2019-04-13T04:41:57.121Z,0.00
2019-04-13T04:42:57.129Z,0.00
2019-04-13T04:43:57.138Z,0.00
2019-04-13T04:44:57.143Z,0.00
2019-04-13T04:45:57.145Z,0.00
2019-04-13T04:46:57.150Z,0.00
2019-04-13T04:47:57.162Z,0.00
2019-04-13T04:48:57.164Z,0.00
2019-04-13T04:49:57.173Z,0.00
2019-04-13T04:50:57.179Z,0.00
2019-04-13T04:51:57.187Z,0.00
2019-04-13T04:52:57.189Z,0.00
2019-04-13T04:53:57.196Z,0.00
2019-04-13T04:54:57.200Z,0.00
2019-04-13T04:55:57.216Z,0.00
2019-04-13T04:56:57.214Z,0.00
2019-04-13T04:57:57.227Z,0.00
2019-04-13T04:58:57.225Z,0.00
2019-04-13T04:59:57.241Z,0.00
2019-04-13T05:00:57.242Z,0.00
2019-04-13T05:01:57.249Z,0.00
2019-04-13T05:02:57.251Z,0.00
2019-04-13T05:03:57.263Z,0.00
2019-04-13T05:04:57.264Z,0.00
2019-04-13T05:05:57.268Z,0.00
2019-04-13T05:06:57.277Z,0.00
2019-04-13T05:07:57.287Z,0.00
2019-04-13T05:08:57.288Z,0.00
2019-04-13T05:09:57.294Z,0.00
2019-04-13T05:10:57.304Z,0.00
2019-04-13T05:11:57.307Z,0.00
2019-04-13T05:12:57.314Z,0.00
2019-04-13T05:13:57.319Z,0.00
2019-04-13T05:14:57.330Z,0.00
2019-04-13T05:15:57.335Z,0.00
2019-04-13T05:16:57.339Z,0.00
2019-04-13T05:17:57.350Z,0.00
2019-04-13T05:18:57.350Z,0.00
2019-04-13T05:19:57.357Z,0.00
2019-04-13T05:20:57.366Z,0.00
2019-04-13T05:21:57.368Z,0.00
2019-04-13T05:22:57.381Z,0.00
2019-04-13T05:23:57.384Z,0.00
2019-04-13T05:24:57.391Z,0.00
2019-04-13T05:25:57.402Z,0.00
2019-04-13T05:26:57.401Z,0.00
2019-04-13T05:27:57.410Z,0.00
2019-04-13T05:28:57.413Z,0.00
2019-04-13T05:29:57.425Z,0.00
2019-04-13T05:30:57.426Z,0.00
2019-04-13T05:31:57.438Z,0.00
2019-04-13T05:32:57.439Z,0.00
2019-04-13T05:33:57.445Z,0.00
2019-04-13T05:34:57.457Z,0.00
2019-04-13T05:35:57.466Z,0.00
2019-04-13T05:36:57.464Z,0.00
2019-04-13T05:37:57.471Z,0.00
2019-04-13T05:38:57.476Z,0.00
2019-04-13T05:39:57.484Z,0.00
2019-04-13T05:40:57.489Z,0.00
2019-04-13T05:41:57.495Z,0.00
2019-04-13T05:42:57.504Z,0.00
2019-04-13T05:43:57.558Z,0.00
2019-04-13T05:44:57.519Z,0.00
2019-04-13T05:45:57.522Z,0.00
2019-04-13T05:46:57.527Z,0.00
2019-04-13T05:47:57.536Z,0.00
2019-04-13T05:48:57.542Z,0.00
2019-04-13T05:49:57.550Z,0.00
2019-04-13T05:50:57.552Z,0.00
2019-04-13T05:51:57.560Z,0.00
2019-04-13T05:52:57.562Z,0.00
2019-04-13T05:53:57.571Z,0.00
2019-04-13T05:54:57.577Z,0.00
2019-04-13T05:55:57.584Z,0.00
2019-04-13T05:56:57.592Z,0.00
2019-04-13T05:57:57.593Z,0.00
2019-04-13T05:59:03.215Z,0.00
2019-04-13T05:59:57.606Z,5.63
2019-04-13T06:00:57.612Z,5.63
2019-04-13T06:01:57.618Z,5.63
2019-04-13T06:02:57.628Z,5.63
2019-04-13T06:03:57.637Z,5.63
2019-04-13T06:04:57.638Z,5.63
2019-04-13T06:05:57.646Z,5.63
2019-04-13T06:07:00.172Z,5.63
2019-04-13T06:07:57.655Z,5.63
2019-04-13T06:08:57.665Z,5.63
2019-04-13T06:09:57.668Z,5.63
2019-04-13T06:10:57.679Z,5.63
2019-04-13T06:11:57.681Z,5.63
2019-04-13T06:12:57.693Z,5.63
2019-04-13T06:13:58.420Z,5.63
2019-04-13T06:14:59.663Z,5.63
2019-04-13T06:15:57.709Z,5.63
2019-04-13T06:16:57.716Z,5.63
2019-04-13T06:17:57.723Z,5.63
2019-04-13T06:18:57.725Z,5.63
2019-04-13T06:19:57.731Z,5.63
2019-04-13T06:20:57.744Z,5.63
2019-04-13T06:21:57.745Z,5.63
2019-04-13T06:22:57.754Z,5.63
2019-04-13T06:23:57.761Z,5.63
2019-04-13T06:24:57.763Z,5.63
2019-04-13T06:26:03.456Z,5.63
2019-04-13T06:26:57.775Z,5.63
2019-04-13T06:27:57.782Z,5.63
2019-04-13T06:28:57.786Z,5.63
2019-04-13T06:30:00.653Z,5.63
2019-04-13T06:30:57.802Z,5.63
2019-04-13T06:31:57.806Z,5.63
2019-04-13T06:32:57.816Z,5.63
2019-04-13T06:33:57.830Z,5.63
2019-04-13T06:34:57.833Z,5.63
2019-04-13T06:35:57.835Z,5.63
2019-04-13T06:36:57.843Z,5.63
2019-04-13T06:37:57.845Z,5.63
2019-04-13T06:38:59.669Z,5.63
2019-04-13T06:39:57.854Z,5.63
2019-04-13T06:40:57.861Z,5.63
2019-04-13T06:41:57.875Z,5.63
2019-04-13T06:42:57.877Z,5.63
2019-04-13T06:44:01.014Z,5.63
2019-04-13T06:44:57.884Z,5.63
2019-04-13T06:45:57.892Z,5.63
2019-04-13T06:46:57.894Z,5.63
2019-04-13T06:48:00.117Z,5.63
2019-04-13T06:48:57.908Z,5.63
2019-04-13T06:49:57.913Z,5.63
2019-04-13T06:50:57.924Z,11.25
2019-04-13T06:51:57.926Z,11.25
2019-04-13T06:52:57.931Z,11.25
2019-04-13T06:53:57.936Z,11.25
2019-04-13T06:54:57.942Z,11.25
2019-04-13T06:55:57.948Z,11.25
2019-04-13T06:56:57.954Z,11.25
2019-04-13T06:57:57.960Z,11.25
2019-04-13T06:58:58.328Z,11.25
2019-04-13T06:59:57.972Z,11.25
2019-04-13T07:00:57.979Z,11.25
2019-04-13T07:01:57.989Z,11.25
2019-04-13T07:02:57.993Z,11.25
2019-04-13T07:03:58.017Z,11.25
2019-04-13T07:04:58.161Z,11.25
2019-04-13T07:06:00.025Z,11.25
2019-04-13T07:06:58.012Z,11.25
2019-04-13T07:07:58.028Z,11.25
2019-04-13T07:08:58.024Z,11.25
2019-04-13T07:09:59.205Z,11.25
2019-04-13T07:10:58.039Z,11.25
2019-04-13T07:11:58.078Z,11.25
2019-04-13T07:12:58.054Z,11.25
2019-04-13T07:13:58.053Z,11.25
2019-04-13T07:14:58.062Z,11.25
2019-04-13T07:15:58.064Z,11.25
2019-04-13T07:16:58.076Z,11.25
2019-04-13T07:17:58.174Z,11.25
2019-04-13T07:18:58.148Z,11.25
2019-04-13T07:19:58.091Z,11.25
2019-04-13T07:20:58.094Z,11.25
2019-04-13T07:21:58.099Z,11.25
2019-04-13T07:22:58.111Z,11.25
2019-04-13T07:23:58.796Z,11.25
2019-04-13T07:24:59.090Z,11.25
2019-04-13T07:26:00.262Z,11.25
2019-04-13T07:26:58.134Z,11.25
2019-04-13T07:28:01.508Z,11.25
2019-04-13T07:28:58.144Z,11.25
2019-04-13T07:29:58.148Z,11.25
2019-04-13T07:31:00.980Z,11.25
2019-04-13T07:32:01.490Z,11.25
2019-04-13T07:32:58.223Z,11.25
2019-04-13T07:33:58.171Z,11.25
2019-04-13T07:34:58.179Z,11.25
2019-04-13T07:35:58.189Z,11.25
2019-04-13T07:36:58.199Z,11.25
2019-04-13T07:37:58.209Z,11.25
2019-04-13T07:38:58.205Z,11.25
2019-04-13T07:39:58.216Z,11.25
2019-04-13T07:40:58.220Z,11.25
2019-04-13T07:41:58.278Z,11.25
2019-04-13T07:42:58.398Z,16.88
2019-04-13T07:43:58.236Z,16.88
2019-04-13T07:44:58.238Z,16.88
2019-04-13T07:45:58.250Z,16.88
2019-04-13T07:46:58.250Z,16.88
2019-04-13T07:47:58.259Z,16.88
2019-04-13T07:48:58.262Z,16.88
2019-04-13T07:49:58.266Z,16.88
2019-04-13T07:50:58.274Z,16.88
2019-04-13T07:51:58.284Z,16.88
2019-04-13T07:52:58.290Z,16.88
2019-04-13T07:53:58.294Z,16.88
2019-04-13T07:54:58.365Z,16.88
2019-04-13T07:55:58.552Z,11.25
2019-04-13T07:57:02.143Z,11.25
2019-04-13T07:57:58.318Z,11.25
2019-04-13T07:58:58.386Z,11.25
2019-04-13T07:59:58.332Z,11.25
2019-04-13T08:00:59.321Z,16.88
2019-04-13T08:01:58.344Z,16.88
2019-04-13T08:02:58.352Z,16.88
2019-04-13T08:03:58.357Z,16.88
2019-04-13T08:04:58.359Z,16.88
2019-04-13T08:05:58.366Z,16.88
2019-04-13T08:06:58.379Z,16.88
2019-04-13T08:07:58.382Z,16.88
2019-04-13T08:08:58.392Z,16.88
2019-04-13T08:09:58.395Z,16.88
2019-04-13T08:10:58.405Z,16.88
2019-04-13T08:11:58.408Z,16.88
2019-04-13T08:12:58.417Z,16.88
2019-04-13T08:13:58.420Z,16.88
2019-04-13T08:14:58.427Z,16.88
2019-04-13T08:15:58.433Z,16.88
2019-04-13T08:16:58.439Z,16.88
2019-04-13T08:17:58.449Z,16.88
2019-04-13T08:18:58.455Z,16.88
2019-04-13T08:19:58.460Z,16.88
2019-04-13T08:21:01.449Z,16.88
2019-04-13T08:21:58.944Z,16.88
2019-04-13T08:22:58.482Z,16.88
2019-04-13T08:23:58.489Z,16.88
2019-04-13T08:24:58.495Z,16.88
2019-04-13T08:25:58.501Z,11.25
2019-04-13T08:26:58.503Z,11.25
2019-04-13T08:27:58.515Z,16.88
2019-04-13T08:28:58.523Z,16.88
2019-04-13T08:29:58.526Z,16.88
2019-04-13T08:30:58.534Z,16.88
2019-04-13T08:32:01.703Z,16.88
2019-04-13T08:33:00.965Z,16.88
2019-04-13T08:33:58.558Z,11.25
2019-04-13T08:34:59.898Z,11.25
2019-04-13T08:35:58.572Z,11.25
2019-04-13T08:37:03.248Z,16.88
2019-04-13T08:38:12.116Z,22.50
2019-04-13T08:38:59.441Z,16.88
2019-04-13T08:40:02.474Z,16.88
2019-04-13T08:41:10.740Z,16.88
2019-04-13T08:41:58.627Z,16.88
2019-04-13T08:42:59.238Z,16.88
2019-04-13T08:43:58.634Z,16.88
2019-04-13T08:44:58.638Z,16.88
2019-04-13T08:45:58.636Z,16.88
2019-04-13T08:46:58.644Z,16.88
2019-04-13T08:47:58.653Z,22.50
2019-04-13T08:48:58.658Z,11.25
2019-04-13T08:49:58.664Z,11.25
2019-04-13T08:50:58.672Z,16.88
2019-04-13T08:51:58.681Z,16.88
2019-04-13T08:52:58.691Z,11.25
2019-04-13T08:53:58.697Z,11.25
2019-04-13T08:54:58.707Z,11.25
2019-04-13T08:55:58.708Z,11.25
2019-04-13T08:56:58.719Z,11.25
2019-04-13T08:57:58.732Z,11.25
2019-04-13T08:58:59.870Z,11.25
2019-04-13T08:59:58.740Z,11.25
2019-04-13T09:00:58.747Z,11.25
2019-04-13T09:01:58.755Z,22.50
2019-04-13T09:02:58.763Z,22.50
2019-04-13T09:03:58.773Z,22.50
2019-04-13T09:04:58.779Z,22.50
2019-04-13T09:05:58.779Z,22.50
2019-04-13T09:06:58.791Z,22.50
2019-04-13T09:07:58.798Z,22.50
2019-04-13T09:09:02.490Z,22.50
2019-04-13T09:09:58.813Z,28.13
2019-04-13T09:10:59.981Z,28.13
2019-04-13T09:12:04.525Z,28.13
2019-04-13T09:12:59.806Z,28.13
2019-04-13T09:13:58.841Z,28.13
2019-04-13T09:15:01.288Z,28.13
2019-04-13T09:15:58.852Z,28.13
2019-04-13T09:16:59.956Z,28.13
2019-04-13T09:18:01.814Z,11.25
2019-04-13T09:19:03.843Z,11.25
2019-04-13T09:19:59.440Z,11.25
2019-04-13T09:21:04.648Z,11.25
2019-04-13T09:21:59.661Z,11.25
2019-04-13T09:23:00.236Z,16.88
2019-04-13T09:23:58.929Z,28.13
2019-04-13T09:24:58.927Z,28.13
2019-04-13T09:25:59.388Z,28.13
2019-04-13T09:26:58.946Z,28.13
2019-04-13T09:27:58.945Z,28.13
2019-04-13T09:28:58.953Z,28.13
2019-04-13T09:29:58.960Z,28.13
2019-04-13T09:30:58.975Z,28.13
2019-04-13T09:32:00.351Z,28.13
2019-04-13T09:32:59.772Z,28.13
2019-04-13T09:33:58.995Z,28.13
2019-04-13T09:34:58.999Z,28.13
2019-04-13T09:35:59.011Z,28.13
2019-04-13T09:37:00.397Z,28.13
2019-04-13T09:37:59.020Z,28.13
2019-04-13T09:38:59.028Z,33.75
2019-04-13T09:39:59.038Z,33.75
2019-04-13T09:41:02.975Z,33.75
2019-04-13T09:41:59.055Z,33.75
2019-04-13T09:42:59.060Z,33.75
2019-04-13T09:43:59.073Z,33.75
2019-04-13T09:45:03.500Z,33.75
2019-04-13T09:45:59.093Z,33.75
2019-04-13T09:46:59.093Z,33.75
2019-04-13T09:47:59.104Z,33.75
2019-04-13T09:48:59.108Z,33.75
2019-04-13T09:49:59.939Z,39.38
2019-04-13T09:50:59.125Z,39.38
2019-04-13T09:52:00.227Z,39.38
2019-04-13T09:52:59.145Z,39.38
2019-04-13T09:53:59.152Z,39.38
2019-04-13T09:54:59.161Z,39.38
2019-04-13T09:55:59.169Z,39.38
2019-04-13T09:56:59.176Z,39.38
2019-04-13T09:58:01.008Z,39.38
2019-04-13T09:58:59.192Z,39.38
2019-04-13T09:59:59.200Z,39.38
2019-04-13T10:01:01.618Z,39.38
2019-04-13T10:01:59.223Z,39.38
2019-04-13T10:03:00.957Z,39.38
2019-04-13T10:03:59.240Z,39.38
2019-04-13T10:04:59.243Z,39.38
2019-04-13T10:05:59.253Z,39.38
2019-04-13T10:06:59.266Z,39.38
2019-04-13T10:07:59.273Z,39.38
2019-04-13T10:08:59.284Z,39.38
2019-04-13T10:09:59.292Z,39.38
2019-04-13T10:10:59.296Z,39.38
2019-04-13T10:11:59.305Z,39.38
2019-04-13T10:12:59.315Z,39.38
2019-04-13T10:13:59.326Z,39.38
2019-04-13T10:14:59.335Z,39.38
2019-04-13T10:15:59.345Z,39.38
2019-04-13T10:16:59.350Z,39.38
2019-04-13T10:17:59.357Z,39.38
2019-04-13T10:18:59.365Z,39.38
2019-04-13T10:19:59.380Z,39.38
2019-04-13T10:20:59.390Z,45.00
2019-04-13T10:21:59.400Z,45.00
2019-04-13T10:22:59.408Z,45.00
2019-04-13T10:23:59.416Z,45.00
2019-04-13T10:24:59.425Z,45.00
2019-04-13T10:25:59.434Z,45.00
2019-04-13T10:26:59.443Z,45.00
2019-04-13T10:27:59.449Z,45.00
2019-04-13T10:28:59.460Z,45.00
2019-04-13T10:30:02.412Z,45.00
2019-04-13T10:30:59.477Z,45.00
2019-04-13T10:31:59.589Z,45.00
2019-04-13T10:32:59.501Z,45.00
2019-04-13T10:33:59.508Z,45.00
2019-04-13T10:34:59.515Z,45.00
2019-04-13T10:35:59.529Z,45.00
2019-04-13T10:36:59.540Z,45.00
2019-04-13T10:37:59.546Z,45.00
2019-04-13T10:39:08.231Z,45.00
2019-04-13T10:39:59.569Z,45.00
2019-04-13T10:40:59.574Z,50.63
2019-04-13T10:41:59.583Z,50.63
2019-04-13T10:42:59.592Z,50.63
2019-04-13T10:43:59.888Z,50.63
2019-04-13T10:44:59.617Z,50.63
2019-04-13T10:45:59.623Z,50.63
2019-04-13T10:47:02.473Z,50.63
2019-04-13T10:47:59.645Z,50.63
2019-04-13T10:48:59.657Z,50.63
2019-04-13T10:49:59.665Z,50.63
2019-04-13T10:50:59.673Z,50.63
2019-04-13T10:51:59.683Z,50.63
2019-04-13T10:52:59.695Z,50.63
2019-04-13T10:53:59.707Z,50.63
2019-04-13T10:54:59.716Z,50.63
2019-04-13T10:55:59.728Z,50.63
2019-04-13T10:56:59.737Z,50.63
2019-04-13T10:57:59.745Z,50.63
2019-04-13T10:58:59.753Z,50.63
2019-04-13T10:59:59.767Z,50.63
2019-04-13T11:00:59.775Z,50.63
2019-04-13T11:01:59.784Z,50.63
2019-04-13T11:03:00.845Z,50.63
2019-04-13T11:03:59.810Z,50.63
2019-04-13T11:04:59.817Z,50.63
2019-04-13T11:05:59.826Z,50.63
2019-04-13T11:06:59.840Z,50.63
2019-04-13T11:07:59.853Z,50.63
2019-04-13T11:08:59.855Z,50.63
2019-04-13T11:10:01.678Z,50.63
2019-04-13T11:10:59.878Z,50.63
2019-04-13T11:11:59.884Z,50.63
2019-04-13T11:12:59.895Z,50.63
2019-04-13T11:13:59.907Z,50.63
2019-04-13T11:14:59.922Z,50.63
2019-04-13T11:15:59.926Z,50.63
2019-04-13T11:16:59.940Z,50.63
2019-04-13T11:18:02.994Z,50.63
2019-04-13T11:18:59.957Z,50.63
2019-04-13T11:19:59.964Z,50.63
2019-04-13T11:21:02.667Z,50.63
2019-04-13T11:21:59.987Z,50.63
2019-04-13T11:22:59.995Z,50.63
2019-04-13T11:24:00.011Z,50.63
2019-04-13T11:25:00.022Z,50.63
2019-04-13T11:26:01.017Z,50.63
2019-04-13T11:27:00.042Z,50.63
2019-04-13T11:28:00.055Z,50.63
2019-04-13T11:29:00.066Z,50.63
2019-04-13T11:30:00.066Z,50.63
2019-04-13T11:31:00.079Z,50.63
2019-04-13T11:32:00.092Z,50.63
2019-04-13T11:33:00.097Z,50.63
2019-04-13T11:34:00.107Z,50.63
2019-04-13T11:35:04.410Z,56.25
2019-04-13T11:36:00.132Z,56.25
2019-04-13T11:37:00.144Z,56.25
2019-04-13T11:38:00.154Z,56.25
2019-04-13T11:39:02.529Z,56.25
2019-04-13T11:40:00.174Z,56.25
2019-04-13T11:41:00.183Z,56.25
2019-04-13T11:42:00.198Z,56.25
2019-04-13T11:43:00.205Z,56.25
2019-04-13T11:44:00.216Z,56.25
2019-04-13T11:45:00.231Z,56.25
2019-04-13T11:46:00.241Z,56.25
2019-04-13T11:47:00.247Z,56.25
2019-04-13T11:48:00.260Z,56.25
2019-04-13T11:49:00.275Z,56.25
2019-04-13T11:50:00.284Z,56.25
2019-04-13T11:51:00.498Z,56.25
2019-04-13T11:52:00.301Z,56.25
2019-04-13T11:53:00.317Z,56.25
2019-04-13T11:54:00.324Z,56.25
2019-04-13T11:55:01.152Z,56.25
2019-04-13T11:56:02.397Z,56.25
2019-04-13T11:57:00.355Z,56.25
2019-04-13T11:58:00.374Z,56.25
2019-04-13T11:59:00.380Z,56.25
2019-04-13T12:00:00.395Z,56.25
2019-04-13T12:01:00.410Z,56.25
2019-04-13T12:02:00.410Z,56.25
2019-04-13T12:03:00.432Z,56.25
2019-04-13T12:04:00.434Z,56.25
2019-04-13T12:05:01.112Z,56.25
2019-04-13T12:06:00.461Z,56.25
2019-04-13T12:07:00.470Z,56.25
2019-04-13T12:08:00.487Z,56.25
2019-04-13T12:09:00.491Z,56.25
2019-04-13T12:10:03.142Z,56.25
2019-04-13T12:11:00.516Z,56.25
2019-04-13T12:12:00.530Z,56.25
2019-04-13T12:13:00.542Z,56.25
2019-04-13T12:14:02.875Z,56.25
2019-04-13T12:15:00.560Z,56.25
2019-04-13T12:16:00.573Z,56.25
2019-04-13T12:17:00.657Z,56.25
2019-04-13T12:18:00.599Z,56.25
2019-04-13T12:19:00.608Z,56.25
2019-04-13T12:20:00.623Z,56.25
2019-04-13T12:21:00.634Z,56.25
2019-04-13T12:22:00.649Z,56.25
2019-04-13T12:23:00.657Z,56.25
2019-04-13T12:24:00.668Z,56.25
2019-04-13T12:25:00.675Z,56.25
2019-04-13T12:26:01.704Z,56.25
2019-04-13T12:27:00.702Z,56.25
2019-04-13T12:28:00.715Z,56.25
2019-04-13T12:29:00.726Z,56.25
2019-04-13T12:30:00.735Z,56.25
2019-04-13T12:31:00.746Z,56.25
2019-04-13T12:32:00.755Z,56.25
2019-04-13T12:33:00.767Z,56.25
2019-04-13T12:34:03.391Z,56.25
2019-04-13T12:35:00.790Z,56.25
2019-04-13T12:36:00.801Z,56.25
2019-04-13T12:37:00.989Z,56.25
2019-04-13T12:38:00.825Z,56.25
2019-04-13T12:39:00.837Z,56.25
2019-04-13T12:40:03.053Z,56.25
2019-04-13T12:41:00.855Z,56.25
2019-04-13T12:42:00.905Z,56.25
2019-04-13T12:43:00.878Z,56.25
2019-04-13T12:44:02.111Z,56.25
2019-04-13T12:45:00.902Z,56.25
2019-04-13T12:46:00.912Z,56.25
2019-04-13T12:47:00.932Z,56.25
2019-04-13T12:48:00.938Z,56.25
2019-04-13T12:49:00.951Z,56.25
2019-04-13T12:50:00.960Z,56.25
2019-04-13T12:51:00.973Z,56.25
2019-04-13T12:52:00.984Z,56.25
2019-04-13T12:53:00.997Z,56.25
2019-04-13T12:54:04.539Z,61.88
2019-04-13T12:55:01.015Z,61.88
2019-04-13T12:56:01.028Z,61.88
2019-04-13T12:57:01.043Z,61.88
2019-04-13T12:58:01.053Z,61.88
2019-04-13T12:59:01.065Z,61.88
2019-04-13T13:00:01.627Z,61.88
2019-04-13T13:01:01.088Z,61.88
2019-04-13T13:02:01.103Z,61.88
2019-04-13T13:03:01.104Z,61.88
2019-04-13T13:04:01.119Z,50.63
2019-04-13T13:05:01.127Z,61.88
2019-04-13T13:06:01.142Z,61.88